Latest Weather Observations for Hobart

IDT60901

Issued at 4:11 pm EDT Sunday 26 March 2017 (issued every 10 minutes, with the page automatically refreshed every 10 minutes)

About weather observations | Map of Hobart area stations | Latest observations for Hobart area | Other Formats
Station Details ID: 094029 Name: HOBART (ELLERSLIE ROAD) Lat: -42.89 Lon: 147.33 Height: 50.5 m
Data from the previous 72 hours. | See also: Recent months at Hobart
Date/Time
EDT
Temp
°C
App
Temp
°C
Dew
Point
°C
Rel
Hum
%
Delta-T
°C
Wind Press
QNH
hPa
Press
MSL
hPa
Rain since
9am
mm
Dir  Spd
km/h
Gust
km/h
Spd
kts
Gust
kts
26/04:00pm 20.9 18.7 13.4 62 4.3 SE 17 22 9 12 1013.9 1013.8 0.0
26/03:30pm 20.9 19.0 13.0 60 4.5 SE 15 20 8 11 1014.1 1014.0 0.0
26/03:00pm 20.6 18.7 13.1 62 4.3 SE 15 22 8 12 1014.2 1014.1 0.0
26/02:30pm 21.0 19.4 12.9 60 4.6 SE 13 17 7 9 1014.5 1014.4 0.0
26/02:00pm 20.5 18.7 13.3 63 4.1 SE 15 20 8 11 1014.9 1014.8 0.0
26/01:30pm 20.3 17.9 12.7 61 4.3 SE 17 22 9 12 1015.1 1015.0 0.0
26/01:00pm 20.4 18.6 12.0 58 4.7 SE 13 17 7 9 1015.5 1015.4 0.0
26/12:30pm 19.9 18.6 12.4 62 4.2 SE 11 15 6 8 1015.7 1015.6 0.0
26/12:00pm 19.8 18.9 12.5 62 4.1 E 9 13 5 7 1015.9 1015.8 0.0
26/11:30am 20.4 20.1 12.6 61 4.4 N 6 9 3 5 1016.0 1015.9 0.0
26/11:00am 18.4 19.2 12.5 68 3.3 CALM 0 4 0 2 1016.1 1016.0 0.0
26/10:30am 17.0 16.6 12.5 75 2.5 NNW 6 7 3 4 1016.1 1016.0 0.0
26/10:00am 16.0 15.6 12.4 79 2.0 NW 6 7 3 4 1016.0 1015.9 0.0
26/09:30am 15.3 14.8 12.0 81 1.8 NNW 6 7 3 4 1015.9 1015.8 0.0
26/09:00am 14.4 13.6 11.8 84 1.4 NW 7 11 4 6 1015.7 1015.6 0.0
26/08:30am 13.8 12.2 11.6 86 1.2 NW 11 15 6 8 1015.4 1015.3 0.0
26/08:00am 13.1 11.5 11.4 89 0.9 NNW 11 15 6 8 1015.0 1014.9 0.0
26/07:30am 12.3 10.9 11.0 92 0.7 NW 9 11 5 6 1014.6 1014.5 0.0
26/07:00am 12.3 11.0 11.2 93 0.6 NNW 9 13 5 7 1014.2 1014.1 0.0
26/06:30am 12.4 12.4 11.1 92 0.7 WNW 2 7 1 4 1014.0 1013.9 0.0
26/06:00am 12.7 12.3 11.2 91 0.8 WSW 4 7 2 4 1013.9 1013.8 0.0
26/05:30am 12.7 11.4 11.2 91 0.8 NW 9 11 5 6 1013.9 1013.8 0.0
26/05:00am 12.9 13.0 11.4 91 0.8 WNW 2 6 1 3 1013.9 1013.8 0.0
26/04:30am 12.9 12.0 11.4 91 0.8 WSW 7 11 4 6 1013.8 1013.7 0.0
26/04:00am 13.0 13.4 11.3 89 0.9 CALM 0 6 0 3 1014.0 1013.9 0.0
26/03:30am 13.3 12.1 11.6 89 0.9 WSW 9 11 5 6 1014.0 1013.9 0.0
26/03:00am 13.3 12.7 11.6 89 0.9 W 6 7 3 4 1013.9 1013.8 0.0
26/02:30am 13.5 12.3 11.6 88 1.0 WSW 9 9 5 5 1014.0 1013.9 0.0
26/02:00am 13.6 12.7 11.5 87 1.1 W 7 9 4 5 1014.0 1013.9 0.0
26/01:30am 13.8 12.7 11.8 88 1.1 W 9 11 5 6 1014.0 1013.9 0.0
26/01:00am 14.0 14.6 11.8 86 1.2 CALM 0 0 0 0 1014.0 1013.9 0.0
26/12:30am 14.4 14.2 11.8 84 1.4 W 4 7 2 4 1013.9 1013.8 0.0
26/12:00am 14.4 15.0 11.8 84 1.4 CALM 0 0 0 0 1013.9 1013.8 0.0
 
Date/Time
EDT
Temp
°C
App
Temp
°C
Dew
Point
°C
Rel
Hum
%
Delta-T
°C
Wind Press
QNH
hPa
Press
MSL
hPa
Rain since
9am
mm
Dir  Spd
km/h
Gust
km/h
Spd
kts
Gust
kts
25/11:30pm 14.7 14.0 12.1 84 1.4 W 7 9 4 5 1013.9 1013.8 0.0
25/11:00pm 15.1 14.5 12.2 83 1.6 W 7 11 4 6 1013.9 1013.8 0.0
25/10:30pm 15.4 14.9 12.5 83 1.6 W 7 9 4 5 1013.8 1013.7 0.0
25/10:00pm 16.0 15.4 12.4 79 2.0 W 7 11 4 6 1013.7 1013.6 0.0
25/09:30pm 16.4 15.1 12.6 78 2.1 W 11 13 6 7 1013.4 1013.3 0.0
25/09:00pm 16.9 15.7 12.8 77 2.3 W 11 13 6 7 1013.1 1013.0 0.0
25/08:30pm 17.4 16.7 13.1 76 2.4 W 9 11 5 6 1012.8 1012.7 0.0
25/08:00pm 17.9 17.2 13.3 74 2.6 W 9 11 5 6 1012.6 1012.5 0.0
25/07:30pm 18.5 18.1 12.4 67 3.4 ESE 6 9 3 5 1012.5 1012.4 0.0
25/07:00pm 18.8 18.0 11.7 63 3.9 SE 7 9 4 5 1012.3 1012.2 0.0
25/06:30pm 19.0 18.2 11.6 62 4.1 ESE 7 9 4 5 1012.1 1012.0 0.0
25/06:00pm 19.4 17.8 11.6 60 4.3 SE 11 15 6 8 1011.9 1011.8 0.0
25/05:30pm 19.5 17.9 11.7 60 4.3 SE 11 15 6 8 1011.8 1011.7 0.0
25/05:00pm 19.6 18.0 11.4 59 4.5 SE 11 15 6 8 1011.8 1011.7 0.0
25/04:30pm 21.2 20.0 11.5 54 5.4 N 9 13 5 7 1011.9 1011.8 0.0
25/04:00pm 21.1 19.8 11.4 54 5.4 NNE 9 15 5 8 1012.1 1012.0 0.0
25/03:30pm 20.2 18.5 11.1 56 5.0 N 11 15 6 8 1012.3 1012.2 0.0
25/03:00pm 19.7 17.5 10.7 56 4.9 NNE 13 20 7 11 1012.4 1012.3 0.0
25/02:30pm 19.5 17.5 10.2 55 5.0 N 11 17 6 9 1012.7 1012.6 0.0
25/02:00pm 18.9 16.0 9.7 55 4.9 NNW 15 22 8 12 1013.0 1012.9 0.0
25/01:30pm 18.5 16.1 8.7 53 5.1 NNW 11 19 6 10 1013.4 1013.3 0.0
25/01:00pm 17.5 15.1 8.6 56 4.6 NNW 11 17 6 9 1013.8 1013.7 0.0
25/12:30pm 17.2 14.4 8.7 57 4.4 N 13 19 7 10 1014.3 1014.2 0.0
25/12:00pm 16.6 13.2 9.3 62 3.8 NNW 17 20 9 11 1014.6 1014.5 0.0
25/11:30am 15.9 12.2 9.3 65 3.4 NNW 19 22 10 12 1014.9 1014.8 0.0
25/11:00am 15.4 11.7 9.6 68 3.0 NNW 19 26 10 14 1015.0 1014.9 0.0
25/10:30am 14.5 12.4 9.9 74 2.4 NNE 11 17 6 9 1015.1 1015.0 0.0
25/10:00am 14.3 11.0 9.4 72 2.5 NNW 17 24 9 13 1015.2 1015.1 0.0
25/09:30am 14.1 10.8 9.4 73 2.4 NNW 17 22 9 12 1015.1 1015.0 0.0
25/09:00am 14.0 11.3 9.1 72 2.5 NNW 13 17 7 9 1015.1 1015.0 0.0
25/08:30am 13.5 10.9 9.2 75 2.2 N 13 17 7 9 1014.9 1014.8 0.0
25/08:00am 13.4 10.7 9.1 75 2.2 NNW 13 20 7 11 1015.1 1015.0 0.0
25/07:30am 13.1 10.9 9.2 77 2.0 NNW 11 15 6 8 1015.3 1015.2 0.0
25/07:00am 13.2 10.1 9.0 75 2.1 NW 15 22 8 12 1015.5 1015.4 0.0
25/06:30am 13.1 10.9 9.4 78 1.9 N 11 15 6 8 1015.6 1015.5 0.0
25/06:00am 13.1 11.2 9.2 77 2.0 NNW 9 13 5 7 1015.5 1015.4 0.0
25/05:30am 13.3 11.2 8.3 72 2.5 NNW 9 15 5 8 1015.9 1015.8 0.0
25/05:00am 13.5 11.0 8.1 70 2.7 N 11 15 6 8 1016.0 1015.9 0.0
25/04:30am 13.7 10.3 7.6 66 3.0 NNW 15 24 8 13 1016.4 1016.3 0.0
25/04:00am 13.4 10.4 7.9 69 2.7 NNW 13 19 7 10 1016.7 1016.6 0.0
25/03:30am 13.5 11.3 7.8 68 2.8 NNW 9 13 5 7 1017.0 1016.9 0.0
25/03:00am 13.5 11.0 8.3 71 2.6 N 11 15 6 8 1017.5 1017.4 0.0
25/02:30am 13.7 11.3 8.5 71 2.6 N 11 15 6 8 1017.9 1017.8 0.0
25/02:00am 13.6 11.1 8.4 71 2.6 N 11 17 6 9 1018.3 1018.2 0.0
25/01:30am 13.6 11.6 8.6 72 2.5 N 9 13 5 7 1018.5 1018.4 0.0
25/01:00am 13.6 11.5 8.4 71 2.6 N 9 13 5 7 1018.7 1018.6 0.0
25/12:30am 13.7 12.1 8.7 72 2.5 N 7 11 4 6 1019.1 1019.0 0.0
25/12:00am 13.8 11.3 8.2 69 2.8 NNE 11 15 6 8 1019.6 1019.5 0.0
 
Date/Time
EDT
Temp
°C
App
Temp
°C
Dew
Point
°C
Rel
Hum
%
Delta-T
°C
Wind Press
QNH
hPa
Press
MSL
hPa
Rain since
9am
mm
Dir  Spd
km/h
Gust
km/h
Spd
kts
Gust
kts
24/11:30pm 13.9 11.9 8.5 70 2.7 N 9 17 5 9 1020.0 1020.0 0.0
24/11:00pm 13.8 12.3 9.3 74 2.3 NNE 7 11 4 6 1020.1 1020.1 0.0
24/10:30pm 13.8 12.7 9.9 77 2.0 NNE 6 9 3 5 1020.5 1020.5 0.0
24/10:00pm 13.9 12.5 9.6 75 2.2 NNE 7 11 4 6 1020.5 1020.5 0.0
24/09:30pm 14.1 12.3 9.6 74 2.3 NE 9 13 5 7 1020.5 1020.5 0.0
24/09:00pm 14.4 12.3 9.7 73 2.4 NE 11 15 6 8 1020.6 1020.6 0.0
24/08:30pm 14.7 11.7 9.2 69 2.8 ENE 15 20 8 11 1020.6 1020.6 0.0
24/08:00pm 15.1 13.7 9.5 69 2.9 ENE 7 11 4 6 1020.6 1020.6 0.0
24/07:30pm 15.2 13.7 10.4 73 2.5 SE 9 13 5 7 1021.1 1021.1 0.0
24/07:00pm 15.2 13.3 10.4 73 2.5 SSE 11 15 6 8 1021.1 1021.1 0.0
24/06:30pm 15.5 13.6 10.4 71 2.7 SE 11 15 6 8 1021.2 1021.2 0.0
24/06:00pm 15.7 12.6 10.2 70 2.9 ESE 17 20 9 11 1020.8 1020.8 0.0
24/05:30pm 16.1 13.7 10.2 68 3.1 ESE 13 19 7 10 1021.0 1021.0 0.0
24/05:00pm 16.5 13.3 10.0 65 3.4 ESE 17 22 9 12 1021.0 1021.0 0.0
24/04:30pm 16.9 13.4 10.3 65 3.5 ESE 19 24 10 13 1021.2 1021.2 0.0
24/04:00pm 17.2 14.1 10.2 63 3.7 ESE 17 20 9 11 1021.4 1021.4 0.0
24/03:30pm 17.5 14.1 9.2 58 4.3 ESE 17 22 9 12 1021.6 1021.6 0.0
24/03:00pm 17.8 14.4 9.2 57 4.5 ESE 17 22 9 12 1022.4 1022.4 0.0
24/02:30pm 18.0 15.0 9.2 56 4.6 ESE 15 19 8 10 1022.8 1022.8 0.0
24/02:00pm 19.5 17.1 7.0 44 6.3 N 9 13 5 7 1023.1 1023.1 0.0
24/01:30pm 19.4 16.4 7.9 47 5.9 NE 13 20 7 11 1023.3 1023.3 0.0
24/01:00pm 18.4 16.1 7.3 48 5.6 N 9 13 5 7 1023.6 1023.6 0.0
24/12:30pm 18.2 15.4 8.7 54 4.9 NNW 13 19 7 10 1023.9 1023.9 0.0
24/12:00pm 17.6 14.5 8.9 56 4.5 NNW 15 24 8 13 1024.5 1024.5 0.0
24/11:30am 17.2 14.1 8.8 57 4.3 NNW 15 22 8 12 1024.8 1024.8 0.0
24/11:00am 15.8 12.8 9.4 65 3.3 NNW 15 20 8 11 1025.1 1025.1 0.0
24/10:30am 15.3 13.1 9.5 68 3.0 N 11 17 6 9 1025.3 1025.3 0.0
24/10:00am 14.2 12.4 9.3 72 2.5 N 9 15 5 8 1025.4 1025.4 0.0
24/09:30am 13.3 11.4 9.1 76 2.1 N 9 13 5 7 1025.4 1025.4 0.0
24/09:00am 12.4 10.5 9.2 81 1.6 NNW 9 11 5 6 1025.4 1025.4 0.2
24/08:30am 11.0 10.6 8.3 83 1.3 CALM 0 0 0 0 1025.2 1025.2 0.2
24/08:00am 9.9 9.5 8.2 89 0.8 CALM 0 6 0 3 1024.8 1024.8 0.2
24/07:30am 9.0 7.1 7.7 91 0.6 NNW 7 9 4 5 1024.7 1024.7 0.2
24/07:00am 9.0 7.1 7.7 91 0.6 W 7 11 4 6 1024.6 1024.6 0.2
24/06:30am 9.3 8.8 7.8 90 0.7 CALM 0 0 0 0 1024.5 1024.5 0.2
24/06:00am 9.4 7.6 7.9 90 0.7 NW 7 9 4 5 1024.4 1024.4 0.2
24/05:30am 9.7 7.9 8.0 89 0.8 W 7 9 4 5 1024.4 1024.4 0.2
24/05:00am 9.5 7.7 8.0 90 0.7 W 7 11 4 6 1024.5 1024.5 0.2
24/04:30am 9.8 7.7 8.4 91 0.7 W 9 11 5 6 1024.5 1024.5 0.2
24/04:00am 9.9 8.2 8.5 91 0.7 WNW 7 9 4 5 1024.6 1024.6 0.2
24/03:30am 10.5 8.6 8.9 90 0.8 WSW 9 11 5 6 1024.5 1024.5 0.2
24/03:00am 10.9 9.6 9.3 90 0.8 W 6 7 3 4 1024.6 1024.6 0.2
24/02:30am 11.2 9.9 9.8 91 0.7 WNW 7 11 4 6 1024.5 1024.5 0.2
24/02:00am 11.6 9.5 9.8 89 0.9 W 11 13 6 7 1024.4 1024.4 0.2
24/01:30am 12.1 10.5 10.3 89 0.9 W 9 13 5 7 1024.6 1024.6 0.2
24/01:00am 13.1 13.3 10.6 85 1.3 CALM 0 0 0 0 1025.0 1025.0 0.2
24/12:30am 13.6 12.1 10.7 82 1.5 WSW 9 11 5 6 1025.3 1025.3 0.2
24/12:00am 13.8 12.7 10.5 80 1.7 SW 7 7 4 4 1025.5 1025.5 0.2
 
Date/Time
EDT
Temp
°C
App
Temp
°C
Dew
Point
°C
Rel
Hum
%
Delta-T
°C
Wind Press
QNH
hPa
Press
MSL
hPa
Rain since
9am
mm
Dir  Spd
km/h
Gust
km/h
Spd
kts
Gust
kts
23/11:30pm 14.0 13.8 10.3 78 1.9 S 2 7 1 4 1025.9 1025.9 0.2
23/11:00pm 14.2 12.6 10.1 76 2.1 S 9 13 5 7 1026.5 1026.5 0.2
23/10:30pm 14.3 12.0 10.3 77 2.1 S 13 17 7 9 1026.5 1026.5 0.2
23/10:00pm 14.3 12.0 10.3 77 2.1 SW 13 19 7 10 1026.7 1026.7 0.2
23/09:30pm 14.5 12.5 10.3 76 2.2 SW 11 19 6 10 1026.5 1026.5 0.2
23/09:00pm 14.7 13.1 10.1 74 2.4 SSW 9 15 5 8 1026.3 1026.3 0.2
23/08:30pm 14.8 13.2 10.2 74 2.4 S 9 13 5 7 1026.0 1026.0 0.2
23/08:00pm 14.8 12.4 10.0 73 2.5 S 13 20 7 11 1025.6 1025.6 0.2
23/07:30pm 14.9 11.6 9.7 71 2.7 SSE 17 24 9 13 1025.3 1025.3 0.2
23/07:00pm 15.0 12.5 9.8 71 2.7 S 13 20 7 11 1025.3 1025.3 0.2
23/06:30pm 15.0 11.8 9.8 71 2.7 SSW 17 22 9 12 1025.2 1025.2 0.2
23/06:00pm 15.5 13.0 9.7 68 3.0 SSE 13 17 7 9 1024.9 1024.9 0.2
23/05:30pm 16.1 14.3 9.5 65 3.4 SSE 9 13 5 7 1024.9 1024.9 0.2
23/05:00pm 16.2 13.8 10.1 67 3.2 SE 13 17 7 9 1024.8 1024.8 0.2
23/04:30pm 16.6 14.2 9.9 64 3.5 SE 13 17 7 9 1024.8 1024.8 0.2

Latest Capital City Observations: Canberra | Sydney | Melbourne | Brisbane | Adelaide | Perth | Hobart | Darwin

Other Formats:

Comma delimited format used in spreadsheet applications
http://www.bom.gov.au/fwo/IDT60901/IDT60901.94970.axf

JavaScript Object Notation format (JSON) in row-major order
http://www.bom.gov.au/fwo/IDT60901/IDT60901.94970.json